Time;durP1;ratioP1;P1;durP2;ratioP2;P2;SDS_P1;SDS_P2;PMS_P1;PMS_P2;Temp;Humidity;BMP_temperature;BMP_pressure;BME280_temperature;BME280_humidity;BME280_pressure;Samples;Min_cycle;Max_cycle;Signal;HPM_P1;HPM_P2
2021/03/10 00:00:52;;;;;;;33.05;17.30;;;;;;;-3.02;67.08;96880.52;1728576;83;21135;-80
2021/03/10 00:03:18;;;;;;;30.55;16.60;;;;;;;-3.00;67.16;96881.13;1694614;84;21144;-80
2021/03/10 00:05:45;;;;;;;25.90;14.53;;;;;;;-2.95;67.18;96882.39;1722502;83;21181;-80
2021/03/10 00:08:13;;;;;;;31.60;15.98;;;;;;;-3.02;67.02;96879.72;1696789;83;21128;-80
2021/03/10 00:10:40;;;;;;;36.10;17.23;;;;;;;-3.18;66.97;96882.56;1700549;84;21508;-80
2021/03/10 00:13:08;;;;;;;39.48;17.67;;;;;;;-3.29;67.04;96882.55;1721360;81;21350;-80
2021/03/10 00:15:36;;;;;;;52.90;21.62;;;;;;;-3.31;67.18;96887.92;1673315;84;21151;-80
2021/03/10 00:18:04;;;;;;;56.50;21.77;;;;;;;-3.32;67.23;96885.02;1699982;84;21141;-80
2021/03/10 00:20:30;;;;;;;42.27;18.75;;;;;;;-3.43;67.22;96880.31;1684781;84;21181;-80
2021/03/10 00:22:57;;;;;;;41.20;17.12;;;;;;;-3.52;67.39;96878.80;1711125;83;21512;-80
2021/03/10 00:25:24;;;;;;;62.30;21.52;;;;;;;-3.60;67.51;96881.03;1685657;84;21146;-80
2021/03/10 00:27:51;;;;;;;58.42;22.15;;;;;;;-3.72;67.79;96886.36;1703427;83;21112;-80
2021/03/10 00:30:19;;;;;;;50.80;18.17;;;;;;;-3.81;67.93;96882.26;1687695;84;21085;-79
2021/03/10 00:32:46;;;;;;;65.52;22.90;;;;;;;-3.85;68.01;96885.41;1703255;84;21179;-79
2021/03/10 00:35:13;;;;;;;48.40;17.70;;;;;;;-3.84;68.06;96884.41;1703743;83;21168;-80
2021/03/10 00:37:40;;;;;;;26.60;13.75;;;;;;;-3.75;68.25;96884.63;1694290;84;21107;-79
2021/03/10 00:40:08;;;;;;;24.40;11.28;;;;;;;-3.64;68.26;96879.80;1728601;82;21182;-80
2021/03/10 00:42:35;;;;;;;33.58;14.33;;;;;;;-3.57;68.10;96877.27;1730890;83;21173;-80
2021/03/10 00:45:02;;;;;;;23.83;12.07;;;;;;;-3.77;68.08;96873.16;1733570;81;21581;-80
2021/03/10 00:47:29;;;;;;;29.50;12.58;;;;;;;-3.98;67.98;96874.38;1733996;83;21271;-80
2021/03/10 00:49:57;;;;;;;43.83;18.32;;;;;;;-4.09;67.74;96874.34;1734052;83;21259;-80
2021/03/10 00:52:25;;;;;;;42.62;17.20;;;;;;;-4.08;67.60;96875.14;1737223;81;21509;-79
2021/03/10 00:54:52;;;;;;;43.33;15.03;;;;;;;-4.10;67.44;96873.23;1731144;82;21474;-80
2021/03/10 00:57:19;;;;;;;41.45;15.30;;;;;;;-4.11;67.30;96865.15;1724114;81;21538;-80
2021/03/10 00:59:46;;;;;;;52.05;18.50;;;;;;;-4.14;67.30;96867.61;1734017;83;21265;-79
2021/03/10 01:02:12;;;;;;;37.10;14.85;;;;;;;-4.17;67.24;96858.11;1731901;81;21138;-80
2021/03/10 01:04:40;;;;;;;41.30;14.63;;;;;;;-4.16;67.09;96858.42;1727725;81;21496;-79
2021/03/10 01:07:07;;;;;;;43.13;14.87;;;;;;;-4.15;67.23;96862.61;1737014;81;21134;-80
2021/03/10 01:09:33;;;;;;;48.23;17.27;;;;;;;-4.15;67.32;96858.73;1731153;83;21162;-80
2021/03/10 01:12:01;;;;;;;43.52;15.75;;;;;;;-4.08;67.67;96854.43;1733228;83;21125;-79
2021/03/10 01:14:28;;;;;;;29.92;12.28;;;;;;;-4.15;67.88;96852.27;1734203;81;21249;-79
2021/03/10 01:16:55;;;;;;;32.23;12.98;;;;;;;-4.32;68.35;96850.35;1731220;83;21147;-80
2021/03/10 01:19:22;;;;;;;28.35;12.53;;;;;;;-4.46;68.07;96844.69;1731198;82;21136;-80
2021/03/10 01:21:49;;;;;;;30.50;12.30;;;;;;;-4.47;68.06;96854.72;1718003;83;21138;-80
2021/03/10 01:24:16;;;;;;;21.40;10.55;;;;;;;-4.47;67.96;96851.64;1734014;81;21095;-79
2021/03/10 01:26:43;;;;;;;27.10;10.58;;;;;;;-4.41;68.08;96846.23;1734155;81;21147;-79
2021/03/10 01:29:10;;;;;;;21.77;10.63;;;;;;;-4.45;67.85;96851.46;1731439;82;21144;-79
2021/03/10 01:31:37;;;;;;;24.57;11.83;;;;;;;-4.54;67.69;96845.06;1729084;81;21109;-79
2021/03/10 01:34:04;;;;;;;23.57;10.88;;;;;;;-4.57;67.57;96844.63;1731673;83;21103;-80
2021/03/10 01:36:31;;;;;;;26.15;11.53;;;;;;;-4.52;67.59;96843.59;1714884;81;21481;-79
2021/03/10 01:38:57;;;;;;;38.92;14.50;;;;;;;-4.54;67.41;96844.27;1732621;81;21494;-79
2021/03/10 01:41:24;;;;;;;42.05;17.23;;;;;;;-4.58;67.49;96839.95;1724305;81;21454;-80
2021/03/10 01:43:51;;;;;;;24.30;12.20;;;;;;;-4.66;67.52;96842.59;1721142;81;21102;-79
2021/03/10 01:46:20;;;;;;;29.52;11.93;;;;;;;-4.69;67.48;96835.69;1712919;83;21114;-80
2021/03/10 01:48:48;;;;;;;22.87;9.90;;;;;;;-4.70;67.46;96839.26;1728681;81;21126;-79
2021/03/10 01:51:15;;;;;;;21.30;9.78;;;;;;;-4.70;67.50;96837.97;1726783;82;21162;-79
2021/03/10 01:53:42;;;;;;;14.23;7.35;;;;;;;-4.67;67.49;96830.65;1740565;81;21240;-80
2021/03/10 01:56:09;;;;;;;13.65;6.67;;;;;;;-4.64;67.27;96832.91;1733119;81;21301;-80
2021/03/10 01:58:37;;;;;;;12.68;6.25;;;;;;;-4.67;67.08;96836.31;1748124;81;21305;-79
2021/03/10 02:01:05;;;;;;;14.70;6.30;;;;;;;-4.74;66.97;96841.40;1652355;84;21155;-79
2021/03/10 02:03:33;;;;;;;13.78;6.20;;;;;;;-4.80;66.78;96844.18;1679241;85;21268;-80
2021/03/10 02:06:01;;;;;;;13.75;6.05;;;;;;;-4.88;66.81;96848.16;1690387;83;21126;-80
2021/03/10 02:08:45;;;;;;;10.70;5.80;;;;;;;-4.92;66.96;96846.91;1689492;84;21262;-80
2021/03/10 02:11:29;;;;;;;11.65;6.30;;;;;;;-4.95;66.99;96845.13;1744216;81;21210;-79
2021/03/10 02:14:19;;;;;;;19.20;7.47;;;;;;;-5.00;67.11;96843.08;1730205;81;21126;-80
2021/03/10 02:17:08;;;;;;;12.93;6.65;;;;;;;-5.04;67.23;96847.49;1737347;82;21156;-79
2021/03/10 02:20:10;;;;;;;13.83;6.78;;;;;;;-5.06;67.30;96842.50;1743809;81;21278;-80
2021/03/10 02:23:09;;;;;;;13.78;6.62;;;;;;;-5.10;67.28;96847.19;1729668;83;21158;-79
2021/03/10 02:26:29;;;;;;;10.30;4.80;;;;;;;-5.04;67.35;96847.49;1672041;86;21536;-80
2021/03/10 02:29:06;;;;;;;15.68;6.58;;;;;;;-4.95;67.59;96849.81;1685899;84;21131;-80
2021/03/10 02:31:41;;;;;;;14.23;7.92;;;;;;;-4.98;67.70;96847.58;1681842;84;21152;-80
2021/03/10 02:34:10;;;;;;;18.52;8.28;;;;;;;-5.06;67.48;96846.37;1695730;84;21175;-80
2021/03/10 02:36:39;;;;;;;14.55;6.78;;;;;;;-5.06;67.62;96850.75;1690596;84;21149;-79
2021/03/10 02:39:08;;;;;;;13.18;6.20;;;;;;;-5.09;67.58;96848.00;1701838;84;21173;-80
2021/03/10 02:41:36;;;;;;;10.90;5.72;;;;;;;-5.03;67.71;96850.39;1704109;83;21142;-80
2021/03/10 02:44:05;;;;;;;10.90;5.75;;;;;;;-5.04;67.61;96851.38;1744894;81;21176;-79
2021/03/10 02:46:33;;;;;;;11.63;5.85;;;;;;;-5.11;67.62;96846.08;1757462;81;21151;-79
2021/03/10 02:49:02;;;;;;;12.10;6.03;;;;;;;-5.12;67.65;96859.48;1719968;82;21083;-79
2021/03/10 02:51:30;;;;;;;10.48;5.47;;;;;;;-5.21;67.59;96854.55;1732440;82;21475;-79
2021/03/10 02:53:57;;;;;;;11.08;6.35;;;;;;;-5.29;67.68;96859.80;1714046;83;21506;-80
2021/03/10 02:56:25;;;;;;;10.60;5.75;;;;;;;-5.34;67.68;96854.34;1684794;83;21146;-79
2021/03/10 02:58:52;;;;;;;14.13;6.85;;;;;;;-5.41;67.76;96852.92;1690348;83;21205;-80
2021/03/10 03:01:20;;;;;;;11.55;5.90;;;;;;;-5.48;67.78;96856.70;1705496;82;21145;-79
2021/03/10 03:03:47;;;;;;;13.05;6.80;;;;;;;-5.45;67.89;96851.67;1744118;81;21133;-80
2021/03/10 03:06:14;;;;;;;10.78;5.90;;;;;;;-5.49;67.91;96855.09;1736571;81;21151;-79
2021/03/10 03:08:41;;;;;;;9.58;5.95;;;;;;;-5.52;67.91;96852.02;1716791;82;21165;-79
2021/03/10 03:11:11;;;;;;;12.63;6.72;;;;;;;-5.58;67.99;96854.02;1753259;81;21185;-80
2021/03/10 03:13:39;;;;;;;14.00;9.05;;;;;;;-5.65;68.18;96852.58;1727918;82;21138;-79
2021/03/10 03:16:08;;;;;;;20.15;9.63;;;;;;;-5.76;68.29;96846.53;1696077;83;21183;-80
2021/03/10 03:18:36;;;;;;;20.10;10.80;;;;;;;-5.86;68.67;96849.81;1712911;83;21501;-79
2021/03/10 03:21:04;;;;;;;18.35;9.20;;;;;;;-5.96;68.80;96851.81;1721089;82;21135;-79
2021/03/10 03:23:32;;;;;;;13.20;6.65;;;;;;;-6.00;68.92;96856.03;1701289;84;21143;-79
2021/03/10 03:26:00;;;;;;;13.18;6.65;;;;;;;-6.03;69.01;96858.16;1697071;83;21542;-79
2021/03/10 03:28:29;;;;;;;13.10;6.22;;;;;;;-6.03;68.89;96855.08;1717262;82;21135;-80
2021/03/10 03:30:57;;;;;;;11.97;5.22;;;;;;;-5.99;68.88;96855.05;1742213;81;21141;-79
2021/03/10 03:33:29;;;;;;;14.60;6.75;;;;;;;-5.94;68.84;96848.58;1747840;81;21469;-79
2021/03/10 03:35:59;;;;;;;15.48;7.55;;;;;;;-5.93;68.90;96847.60;1740268;81;21142;-79
2021/03/10 03:38:28;;;;;;;13.98;8.43;;;;;;;-6.10;69.01;96854.13;1734352;82;21125;-79
2021/03/10 03:40:57;;;;;;;15.15;7.72;;;;;;;-6.25;69.31;96854.52;1736072;82;21466;-79
2021/03/10 03:43:27;;;;;;;13.10;7.53;;;;;;;-6.33;69.46;96865.68;1755354;81;21469;-79
2021/03/10 03:45:54;;;;;;;;;;;;;;;-6.37;69.55;96864.38;1734918;81;21247;-79
2021/03/10 03:48:22;;;;;;;14.50;8.57;;;;;;;-6.44;69.73;96867.80;1690409;83;20191;-79
2021/03/10 03:50:50;;;;;;;17.48;8.75;;;;;;;-6.45;70.07;96866.20;1721235;82;21181;-79
2021/03/10 03:53:17;;;;;;;15.38;9.55;;;;;;;-6.41;70.08;96863.11;1739725;82;21528;-79
2021/03/10 03:55:44;;;;;;;18.65;9.23;;;;;;;-6.38;69.98;96864.06;1724185;81;21502;-79
2021/03/10 03:58:13;;;;;;;17.20;7.97;;;;;;;-6.33;70.23;96866.16;1743628;81;21359;-79
2021/03/10 04:00:40;;;;;;;16.50;8.60;;;;;;;-6.30;70.57;96865.83;1753906;81;21499;-79
2021/03/10 04:03:07;;;;;;;15.90;9.03;;;;;;;-6.32;70.80;96858.74;1743459;81;21149;-79
2021/03/10 04:05:34;;;;;;;16.47;9.17;;;;;;;-6.32;70.70;96867.77;1729213;81;21238;-79
2021/03/10 04:08:02;;;;;;;15.97;9.20;;;;;;;-6.34;70.71;96865.82;1699084;84;21162;-79
2021/03/10 04:10:33;;;;;;;15.90;8.87;;;;;;;-6.33;71.03;96862.30;1698161;84;21174;-79
2021/03/10 04:13:01;;;;;;;18.40;9.35;;;;;;;-6.28;71.16;96867.75;1744478;81;21122;-79
2021/03/10 04:15:30;;;;;;;17.50;8.27;;;;;;;-6.19;71.01;96869.80;1688793;84;21184;-79
2021/03/10 04:17:58;;;;;;;16.02;8.33;;;;;;;-6.15;70.91;96863.36;1714033;84;21147;-79
2021/03/10 04:20:26;;;;;;;20.65;10.53;;;;;;;-6.23;70.95;96861.59;1710861;83;21135;-79
2021/03/10 04:22:53;;;;;;;16.73;9.17;;;;;;;-6.34;71.09;96865.33;1715838;83;21174;-79
2021/03/10 04:25:20;;;;;;;22.17;10.00;;;;;;;-6.37;71.26;96862.28;1713993;83;21183;-79
2021/03/10 04:27:48;;;;;;;22.77;10.08;;;;;;;-6.44;71.19;96868.61;1718830;83;21157;-79
2021/03/10 04:30:17;;;;;;;18.90;9.68;;;;;;;-6.46;71.21;96863.30;1692884;83;21151;-79
2021/03/10 04:32:44;;;;;;;20.37;10.43;;;;;;;-6.49;71.33;96870.86;1713952;82;21154;-79
2021/03/10 04:35:12;;;;;;;21.57;10.38;;;;;;;-6.53;71.48;96864.43;1721658;82;21169;-79
2021/03/10 04:37:40;;;;;;;17.50;9.77;;;;;;;-6.57;71.62;96859.29;1729372;82;21127;-79
2021/03/10 04:40:10;;;;;;;19.13;10.20;;;;;;;-6.61;71.75;96860.59;1715761;82;21147;-79
2021/03/10 04:42:37;;;;;;;15.18;9.55;;;;;;;-6.69;72.09;96860.59;1707919;83;21551;-79
2021/03/10 04:45:07;;;;;;;18.43;9.07;;;;;;;-6.76;72.39;96860.92;1699391;84;21153;-79
2021/03/10 04:47:35;;;;;;;16.32;8.90;;;;;;;-6.75;72.84;96858.20;1698707;84;21132;-79
2021/03/10 04:50:06;;;;;;;18.07;9.83;;;;;;;-6.69;72.90;96858.83;1705928;84;21180;-79
2021/03/10 04:52:33;;;;;;;17.20;9.60;;;;;;;-6.64;72.79;96857.84;1696815;84;21185;-79
2021/03/10 04:54:59;;;;;;;17.97;9.30;;;;;;;-6.59;72.87;96853.02;1660985;86;21284;-79
2021/03/10 04:57:27;;;;;;;18.37;9.13;;;;;;;-6.53;72.95;96857.17;1671848;85;21159;-79
2021/03/10 04:59:54;;;;;;;19.47;10.27;;;;;;;-6.53;72.89;96851.53;1730583;82;21467;-79
2021/03/10 05:02:21;;;;;;;19.03;9.20;;;;;;;-6.53;72.75;96856.69;1733526;82;21110;-79
2021/03/10 05:04:48;;;;;;;15.47;9.03;;;;;;;-6.64;72.82;96857.03;1718920;82;21129;-79
2021/03/10 05:07:16;;;;;;;22.35;11.68;;;;;;;-6.70;72.99;96867.53;1700537;84;21143;-79
2021/03/10 05:09:44;;;;;;;22.77;11.97;;;;;;;-6.70;73.14;96858.98;1660249;84;21173;-79
2021/03/10 05:12:11;;;;;;;28.47;12.40;;;;;;;-6.70;73.01;96866.23;1666994;85;21151;-79
2021/03/10 05:14:38;;;;;;;26.60;14.55;;;;;;;-6.69;73.11;96859.31;1733375;82;21123;-79
2021/03/10 05:17:05;;;;;;;24.03;12.47;;;;;;;-6.63;73.22;96868.47;1729643;82;21152;-79
2021/03/10 05:19:32;;;;;;;25.95;11.35;;;;;;;-6.57;73.04;96862.35;1725369;82;21488;-79
2021/03/10 05:21:59;;;;;;;20.57;11.43;;;;;;;-6.56;73.28;96865.25;1736754;82;21170;-79
2021/03/10 05:24:27;;;;;;;28.90;13.20;;;;;;;-6.52;73.25;96863.94;1736216;82;21109;-79
2021/03/10 05:26:54;;;;;;;39.23;22.13;;;;;;;-6.44;73.15;96862.64;1719968;82;21094;-79
2021/03/10 05:29:21;;;;;;;34.48;18.85;;;;;;;-6.31;73.34;96865.02;1733999;82;21488;-79
2021/03/10 05:31:48;;;;;;;33.63;19.77;;;;;;;-6.14;73.27;96867.55;1726628;82;21500;-79
2021/03/10 05:34:15;;;;;;;26.33;15.23;;;;;;;-5.90;73.06;96866.64;1688450;84;21135;-79
2021/03/10 05:36:42;;;;;;;28.65;15.78;;;;;;;-5.53;72.88;96870.59;1680088;84;21146;-79
2021/03/10 05:39:09;;;;;;;24.60;13.25;;;;;;;-5.26;72.36;96862.83;1671116;84;21151;-79
2021/03/10 05:41:36;;;;;;;23.98;13.80;;;;;;;-5.09;71.94;96866.89;1680984;84;21555;-79
2021/03/10 05:44:04;;;;;;;25.40;13.55;;;;;;;-4.76;71.67;96871.81;1697622;84;21144;-79
2021/03/10 05:46:31;;;;;;;20.37;12.20;;;;;;;-4.36;71.29;96873.20;1707006;84;21301;-79
2021/03/10 05:48:58;;;;;;;22.90;12.53;;;;;;;-3.99;70.75;96876.66;1708590;84;21277;-80
2021/03/10 05:51:25;;;;;;;19.02;11.12;;;;;;;-3.68;70.40;96874.64;1702014;84;21572;-80
2021/03/10 05:53:53;;;;;;;22.37;12.45;;;;;;;-3.22;69.79;96876.14;1697504;84;21151;-80
2021/03/10 05:56:20;;;;;;;21.48;11.90;;;;;;;-2.73;69.77;96872.27;1693057;84;21139;-80
2021/03/10 05:59:00;;;;;;;18.65;11.90;;;;;;;-1.89;69.81;96870.41;1727863;83;21150;-80
2021/03/10 06:01:28;;;;;;;23.45;12.68;;;;;;;-0.92;69.12;96870.56;1694625;83;21575;-80
2021/03/10 06:03:59;;;;;;;19.98;12.78;;;;;;;0.14;68.13;96874.34;1727837;82;21296;-80
2021/03/10 06:06:41;;;;;;;22.02;12.82;;;;;;;1.13;67.35;96875.17;1694542;84;21589;-80
2021/03/10 06:09:19;;;;;;;19.95;11.15;;;;;;;2.05;65.90;96869.63;1728449;83;21292;-80
2021/03/10 06:12:02;;;;;;;18.50;11.45;;;;;;;3.01;64.79;96878.52;1700458;84;21226;-79
2021/03/10 06:14:31;;;;;;;19.20;11.60;;;;;;;3.76;63.36;96875.61;1718341;83;21111;-79
2021/03/10 06:17:08;;;;;;;22.75;12.90;;;;;;;4.50;61.92;96881.10;1688431;84;21174;-79
2021/03/10 06:22:34;;;;;;;19.98;12.23;;;;;;;5.43;58.90;96884.36;1880480;75;22551;-79
2021/03/10 06:25:03;;;;;;;20.43;12.70;;;;;;;5.84;58.88;96885.27;1823182;78;21098;-79
2021/03/10 06:27:30;;;;;;;20.12;12.65;;;;;;;6.50;57.81;96894.10;1820325;78;21131;-79
2021/03/10 06:29:59;;;;;;;22.17;12.43;;;;;;;6.88;56.69;96893.73;1824185;78;21467;-79
2021/03/10 06:32:27;;;;;;;21.35;13.03;;;;;;;7.02;55.52;96894.93;1817136;78;21110;-79
2021/03/10 06:34:54;;;;;;;22.20;13.28;;;;;;;6.98;53.30;96902.27;1815271;78;21122;-79
2021/03/10 06:37:33;;;;;;;21.57;13.22;;;;;;;6.77;52.62;96903.91;1817272;78;21106;-79
2021/03/10 06:40:14;;;;;;;18.80;12.75;;;;;;;6.93;52.27;96906.98;1822411;78;21445;-80
2021/03/10 06:42:46;;;;;;;21.10;12.95;;;;;;;7.34;51.53;96913.98;1823125;78;21153;-78
2021/03/10 06:45:13;;;;;;;21.80;14.20;;;;;;;7.62;50.59;96913.70;1822029;78;21423;-78
2021/03/10 06:47:42;;;;;;;23.45;15.25;;;;;;;7.89;49.75;96916.82;1796393;78;21110;-78
2021/03/10 06:50:11;;;;;;;23.95;15.38;;;;;;;7.94;48.47;96912.89;1787177;80;21115;-78
2021/03/10 06:52:42;;;;;;;21.70;14.50;;;;;;;8.06;48.07;96917.46;1786053;80;21478;-78
2021/03/10 06:55:11;;;;;;;20.97;14.25;;;;;;;8.50;47.74;96917.22;1773277;80;21623;-78
2021/03/10 06:57:45;;;;;;;22.80;14.28;;;;;;;8.69;46.81;96914.38;1752669;80;21113;-78
2021/03/10 07:00:24;;;;;;;22.13;14.40;;;;;;;8.91;45.72;96917.66;1771313;81;21150;-80
2021/03/10 07:02:53;;;;;;;19.85;14.23;;;;;;;9.13;44.55;96920.08;1760583;81;21302;-80
2021/03/10 07:05:20;;;;;;;21.80;15.10;;;;;;;9.46;45.85;96916.19;1766306;81;21124;-79
2021/03/10 07:07:48;;;;;;;24.45;14.70;;;;;;;10.05;45.25;96920.16;1767485;80;21103;-79
2021/03/10 07:10:16;;;;;;;23.42;15.03;;;;;;;10.64;44.72;96918.20;1753726;80;21154;-80
2021/03/10 07:12:44;;;;;;;24.80;16.40;;;;;;;11.02;42.38;96919.38;1771043;81;21119;-80
2021/03/10 07:15:14;;;;;;;21.02;16.02;;;;;;;11.19;43.09;96918.48;1768767;81;21496;-80
2021/03/10 07:17:43;;;;;;;26.97;16.25;;;;;;;12.12;43.27;96922.89;1770145;81;21173;-80
2021/03/10 07:20:11;;;;;;;22.07;14.68;;;;;;;12.83;42.76;96918.69;1759323;80;21343;-80
2021/03/10 07:22:59;;;;;;;21.02;14.45;;;;;;;13.76;42.20;96922.47;1766853;80;21470;-79
2021/03/10 07:25:31;;;;;;;22.13;14.50;;;;;;;14.48;41.63;96922.87;1770336;80;21139;-80
2021/03/10 07:28:06;;;;;;;19.07;13.32;;;;;;;14.74;39.90;96921.05;1759947;81;21478;-80
2021/03/10 07:30:46;;;;;;;19.65;13.18;;;;;;;15.21;40.04;96921.17;1754670;81;21496;-80
2021/03/10 07:33:18;;;;;;;19.60;13.25;;;;;;;15.85;39.09;96924.55;1749002;81;21103;-80
2021/03/10 07:36:01;;;;;;;17.40;13.18;;;;;;;16.37;38.75;96923.53;1752783;80;21162;-80
2021/03/10 07:38:41;;;;;;;17.10;12.10;;;;;;;16.38;36.51;96924.32;1758885;81;21141;-80
2021/03/10 07:41:16;;;;;;;;;;;;;;;16.29;36.88;96924.27;1762764;80;21186;-79
2021/03/10 07:43:50;;;;;;;18.25;10.95;;;;;;;17.17;35.88;96923.77;1752157;81;20349;-80
2021/03/10 07:46:24;;;;;;;16.27;11.70;;;;;;;16.93;31.92;96920.71;1765234;80;21121;-80
2021/03/10 07:48:53;;;;;;;17.07;12.03;;;;;;;16.08;33.75;96923.22;1767567;81;21124;-80
2021/03/10 07:51:28;;;;;;;16.77;12.45;;;;;;;15.84;30.14;96924.31;1765084;80;21122;-80
2021/03/10 07:53:57;;;;;;;14.53;10.90;;;;;;;15.38;32.64;96933.34;1768209;81;21099;-80
2021/03/10 07:56:28;;;;;;;17.40;12.23;;;;;;;14.88;29.15;96932.52;1764145;80;21424;-80
2021/03/10 07:59:12;;;;;;;17.95;12.55;;;;;;;14.50;30.47;96930.05;1766708;81;21686;-80
2021/03/10 08:01:40;;;;;;;21.02;13.30;;;;;;;14.62;30.91;96938.09;1785683;80;21127;-80
2021/03/10 08:04:15;;;;;;;14.45;10.15;;;;;;;15.29;31.27;96937.81;1767795;81;21117;-80
2021/03/10 08:06:46;;;;;;;12.70;8.50;;;;;;;15.17;29.25;96937.53;1764379;80;21491;-80
2021/03/10 08:09:19;;;;;;;11.33;7.85;;;;;;;15.04;28.65;96933.78;1758583;80;21485;-79
2021/03/10 08:11:50;;;;;;;11.65;7.62;;;;;;;14.78;30.04;96933.53;1768375;81;21138;-80
2021/03/10 08:14:18;;;;;;;13.15;7.80;;;;;;;15.72;28.14;96935.54;1758543;81;21093;-79
2021/03/10 08:16:51;;;;;;;12.75;9.20;;;;;;;15.66;29.50;96939.98;1756198;80;21133;-79
2021/03/10 08:19:23;;;;;;;12.28;8.43;;;;;;;15.58;28.01;96937.44;1758517;81;21162;-80
2021/03/10 08:21:55;;;;;;;13.15;8.75;;;;;;;14.70;24.65;96942.22;1746808;80;21133;-80
2021/03/10 08:24:25;;;;;;;13.40;9.35;;;;;;;13.86;27.43;96932.19;1767527;81;21085;-80
2021/03/10 08:27:00;;;;;;;15.48;9.38;;;;;;;13.76;27.15;96933.67;1788671;80;21152;-80
2021/03/10 08:29:31;;;;;;;14.58;9.25;;;;;;;13.70;26.21;96947.63;1773143;80;21111;-80
2021/03/10 08:31:58;;;;;;;14.58;9.10;;;;;;;13.57;27.12;96946.48;1760790;80;21163;-80
2021/03/10 08:34:38;;;;;;;14.50;8.28;;;;;;;13.25;27.29;96947.73;1756995;80;21728;-80
2021/03/10 08:37:08;;;;;;;12.60;8.50;;;;;;;14.10;29.20;96942.73;1775905;80;21129;-80
2021/03/10 08:39:49;;;;;;;15.45;9.78;;;;;;;15.40;29.79;96939.72;1777621;80;21147;-80
2021/03/10 08:42:21;;;;;;;11.93;7.30;;;;;;;15.77;27.12;96942.67;1783293;80;21550;-80
2021/03/10 08:44:50;;;;;;;14.10;7.37;;;;;;;14.69;24.73;96946.52;1746142;81;21130;-80
2021/03/10 08:47:26;;;;;;;16.20;9.90;;;;;;;13.45;24.77;96941.33;1763833;80;21604;-80
2021/03/10 08:50:00;;;;;;;14.03;8.55;;;;;;;11.50;26.90;96944.84;1758214;81;21521;-80
2021/03/10 08:52:28;;;;;;;14.90;8.65;;;;;;;11.13;28.66;96949.31;1773985;80;21145;-80
2021/03/10 08:55:02;;;;;;;15.23;8.90;;;;;;;11.96;29.27;96949.31;1766129;81;21538;-80
2021/03/10 08:57:32;;;;;;;15.03;9.18;;;;;;;12.79;28.50;96949.03;1766806;79;21484;-80
2021/03/10 09:00:03;;;;;;;17.35;8.03;;;;;;;11.67;26.42;96953.22;1774440;80;21118;-80
2021/03/10 09:02:37;;;;;;;12.33;7.05;;;;;;;10.24;28.87;96946.91;1774310;80;21479;-80
2021/03/10 09:05:07;;;;;;;12.43;7.62;;;;;;;9.80;27.67;96956.70;1769251;80;21143;-80
2021/03/10 09:07:35;;;;;;;12.60;6.70;;;;;;;8.63;29.92;96950.58;1766474;80;21107;-80
2021/03/10 09:10:17;;;;;;;13.62;7.90;;;;;;;8.29;29.16;96961.96;1731014;81;21114;-80
2021/03/10 09:12:51;;;;;;;12.95;7.53;;;;;;;7.62;31.41;96963.84;1750210;81;21106;-80
2021/03/10 09:15:23;;;;;;;12.43;7.67;;;;;;;7.67;31.77;96966.52;1761756;81;21138;-80
2021/03/10 09:17:50;;;;;;;12.75;7.05;;;;;;;7.07;31.97;96960.91;1759109;80;21485;-80
2021/03/10 09:20:28;;;;;;;11.20;6.22;;;;;;;6.41;32.06;96956.12;1748714;80;21603;-80
2021/03/10 09:22:57;;;;;;;10.30;6.22;;;;;;;5.99;32.62;96963.67;1762495;80;21151;-81
2021/03/10 09:25:28;;;;;;;14.75;6.87;;;;;;;5.59;33.17;96962.46;1762170;80;21123;-81
2021/03/10 09:28:05;;;;;;;;;;;;;;;5.33;33.64;96961.22;1764956;80;21136;-81
2021/03/10 09:30:36;;;;;;;8.93;4.97;;;;;;;5.35;33.79;96959.17;1754932;81;20345;-81
2021/03/10 09:33:05;;;;;;;5.40;3.77;;;;;;;4.88;32.92;96960.64;1749666;80;21133;-81
2021/03/10 09:35:37;;;;;;;10.08;5.37;;;;;;;4.50;33.97;96961.17;1752770;80;21503;-81
2021/03/10 09:38:09;;;;;;;11.12;5.65;;;;;;;4.11;34.16;96960.87;1760218;81;21102;-81
2021/03/10 09:40:46;;;;;;;10.98;6.03;;;;;;;3.51;34.48;96962.31;1776401;80;21474;-81
2021/03/10 09:43:21;;;;;;;10.45;5.95;;;;;;;3.10;35.08;96966.25;1761991;81;21113;-79
2021/03/10 09:45:50;;;;;;;11.60;6.03;;;;;;;2.99;35.45;96965.17;1761316;81;21110;-81
2021/03/10 09:48:31;;;;;;;10.93;5.85;;;;;;;3.00;35.61;96964.16;1764851;80;21184;-80
2021/03/10 09:51:10;;;;;;;10.98;6.62;;;;;;;2.98;37.41;96968.30;1770966;81;21552;-80
2021/03/10 09:53:46;;;;;;;11.48;7.17;;;;;;;2.88;37.95;96974.56;1766243;81;21157;-81
2021/03/10 09:56:17;;;;;;;12.85;7.42;;;;;;;2.44;38.49;96970.95;1748659;80;21079;-81
2021/03/10 09:58:56;;;;;;;12.05;6.97;;;;;;;2.59;38.76;96971.38;1761339;80;21143;-81
2021/03/10 10:01:28;;;;;;;11.25;5.90;;;;;;;3.23;38.81;96970.77;1776808;80;21484;-81
2021/03/10 10:03:58;;;;;;;11.80;6.35;;;;;;;3.51;37.43;96977.25;1765686;81;21415;-81
2021/03/10 10:06:25;;;;;;;12.13;6.85;;;;;;;3.62;37.97;96978.30;1763577;81;21500;-81
2021/03/10 10:08:53;;;;;;;12.30;5.75;;;;;;;3.80;38.08;96983.46;1760809;81;21126;-81
2021/03/10 10:11:22;;;;;;;12.35;5.72;;;;;;;4.23;38.44;96975.83;1758080;81;21133;-81
2021/03/10 10:13:51;;;;;;;11.12;5.33;;;;;;;4.42;36.59;96970.22;1766902;80;21130;-81
2021/03/10 10:16:19;;;;;;;8.88;4.62;;;;;;;4.17;37.18;96969.13;1763436;81;21119;-81
2021/03/10 10:18:48;;;;;;;10.82;5.50;;;;;;;4.46;36.71;96970.55;1764568;81;21161;-81
2021/03/10 10:21:17;;;;;;;10.48;5.85;;;;;;;4.16;35.43;96966.23;1762806;80;21134;-81
2021/03/10 10:23:44;;;;;;;9.83;4.97;;;;;;;3.63;35.22;96963.66;1763184;81;21083;-81
2021/03/10 10:26:12;;;;;;;8.58;4.92;;;;;;;3.22;36.18;96967.07;1762996;81;21515;-81
2021/03/10 10:28:39;;;;;;;10.98;5.35;;;;;;;3.01;37.11;96966.26;1760680;80;21118;-81
2021/03/10 10:31:06;;;;;;;10.88;5.67;;;;;;;3.21;36.39;96972.82;1744421;81;21173;-81
2021/03/10 10:33:33;;;;;;;10.58;5.37;;;;;;;2.93;37.14;96970.77;1742122;81;21147;-81
2021/03/10 10:36:00;;;;;;;12.82;5.50;;;;;;;2.74;37.67;96967.88;1744648;80;21487;-81
2021/03/10 10:38:27;;;;;;;12.30;6.03;;;;;;;3.05;37.30;96967.41;1766816;81;21114;-81
2021/03/10 10:40:55;;;;;;;12.65;6.67;;;;;;;2.87;38.49;96970.34;1757157;81;21174;-81
2021/03/10 10:43:22;;;;;;;11.60;6.55;;;;;;;2.80;39.07;96974.84;1763725;81;21136;-81
2021/03/10 10:45:49;;;;;;;10.60;6.22;;;;;;;3.03;38.29;96976.80;1739975;81;21477;-81
2021/03/10 10:48:16;;;;;;;9.85;5.80;;;;;;;3.50;38.91;96968.58;1749098;81;21144;-81
2021/03/10 10:50:43;;;;;;;12.50;6.45;;;;;;;3.33;38.44;96966.31;1772552;80;21104;-81
2021/03/10 10:53:10;;;;;;;12.58;6.50;;;;;;;3.17;38.94;96976.91;1765455;81;21529;-81
2021/03/10 10:55:37;;;;;;;10.88;6.20;;;;;;;3.55;39.66;96970.04;1766914;80;21451;-81
2021/03/10 10:58:04;;;;;;;10.68;6.05;;;;;;;3.97;39.42;96971.31;1773393;79;21482;-81
2021/03/10 11:00:32;;;;;;;12.03;6.47;;;;;;;4.29;39.31;96973.08;1770157;81;21149;-81
2021/03/10 11:02:59;;;;;;;11.00;6.55;;;;;;;4.55;38.76;96973.11;1770141;81;21138;-81
2021/03/10 11:05:26;;;;;;;14.20;6.03;;;;;;;4.45;37.72;96972.38;1766015;81;21464;-81
2021/03/10 11:07:53;;;;;;;10.82;6.10;;;;;;;4.55;37.98;96967.86;1764729;81;21124;-81
2021/03/10 11:10:20;;;;;;;10.63;6.37;;;;;;;4.73;37.81;96969.53;1762909;80;21117;-81
2021/03/10 11:12:48;;;;;;;9.90;5.40;;;;;;;4.06;36.51;96972.55;1767338;81;21138;-81
2021/03/10 11:15:16;;;;;;;8.75;4.83;;;;;;;4.08;38.09;96961.83;1769636;81;21498;-81
2021/03/10 11:17:43;;;;;;;13.48;5.95;;;;;;;4.33;37.09;96949.78;1767187;81;21129;-81
2021/03/10 11:20:10;;;;;;;10.18;5.53;;;;;;;3.53;36.83;96965.54;1764081;80;21120;-82
2021/03/10 11:22:37;;;;;;;10.58;5.37;;;;;;;2.96;37.04;96961.18;1763469;80;21213;-81
2021/03/10 11:25:10;;;;;;;9.30;5.50;;;;;;;2.82;39.30;96966.80;1762503;81;21124;-81
2021/03/10 11:27:39;;;;;;;8.58;5.60;;;;;;;2.54;37.82;96959.47;1767130;80;21465;-81
2021/03/10 11:30:09;;;;;;;10.75;7.25;;;;;;;2.30;38.90;96959.81;1764998;81;21138;-81
2021/03/10 11:32:37;;;;;;;12.65;7.10;;;;;;;2.57;39.70;96955.11;1739536;81;21145;-81
2021/03/10 11:35:09;;;;;;;18.20;8.55;;;;;;;3.02;39.41;96946.91;1742825;80;21121;-81
2021/03/10 11:37:37;;;;;;;12.95;7.20;;;;;;;3.41;40.42;96950.80;1764342;81;21517;-81
2021/03/10 11:40:07;;;;;;;10.30;6.37;;;;;;;3.76;39.78;96949.03;1761837;81;21107;-81